Time;durP1;ratioP1;P1;durP2;ratioP2;P2;SDS_P1;SDS_P2;PMS_P1;PMS_P2;Temp;Humidity;BMP_temperature;BMP_pressure;BME280_temperature;BME280_humidity;BME280_pressure;Samples;Min_cycle;Max_cycle;Signal;HPM_P1;HPM_P2
2023/07/15 00:00:31;;;;;;;2.93;2.20;;;;;;;21.82;51.79;100223.91;4935686;29;20038;-90
2023/07/15 00:06:20;;;;;;;4.60;2.05;;;;;;;21.80;51.25;100215.13;4995520;28;20092;-91
2023/07/15 00:09:41;;;;;;;4.95;2.20;;;;;;;21.78;51.57;100220.94;4961658;28;20030;-91
2023/07/15 00:12:09;;;;;;;5.88;2.40;;;;;;;21.71;51.53;100217.78;4978459;28;20030;-90
2023/07/15 00:14:35;;;;;;;6.93;2.30;;;;;;;21.73;51.38;100215.50;4963069;28;20026;-91
2023/07/15 00:17:28;;;;;;;5.55;2.30;;;;;;;21.72;51.18;100224.94;4961851;28;20088;-91
2023/07/15 00:23:36;;;;;;;4.47;2.03;;;;;;;21.67;51.26;100223.09;4955095;29;20074;-91
2023/07/15 00:26:04;;;;;;;4.70;2.30;;;;;;;21.62;51.33;100217.66;4922182;29;20439;-91
2023/07/15 00:28:35;;;;;;;5.18;2.15;;;;;;;21.67;51.34;100222.25;4922402;29;20090;-91
2023/07/15 00:35:17;;;;;;;8.63;2.33;;;;;;;21.70;51.18;100216.13;4954344;28;20036;-91
2023/07/15 00:51:35;;;;;;;6.75;2.15;;;;;;;21.63;50.97;100233.09;4914318;29;20493;-91
2023/07/15 00:58:00;;;;;;;3.90;2.30;;;;;;;21.46;51.69;100238.34;4915447;29;20059;-91
2023/07/15 01:03:56;;;;;;;3.80;2.30;;;;;;;21.18;52.30;100230.00;4917001;28;20121;-91
2023/07/15 01:09:45;;;;;;;6.27;2.07;;;;;;;21.00;53.48;100220.66;4940509;28;20054;-91
2023/07/15 01:16:30;;;;;;;10.15;2.20;;;;;;;20.95;53.21;100237.25;4998499;28;20041;-91
2023/07/15 01:27:05;;;;;;;6.07;2.10;;;;;;;20.67;54.39;100231.66;4998224;28;20512;-90
2023/07/15 01:29:33;;;;;;;3.40;2.00;;;;;;;20.63;54.54;100238.84;4966693;28;20042;-90
2023/07/15 01:31:58;;;;;;;6.95;2.35;;;;;;;20.55;54.85;100231.22;4980698;28;20463;-90
2023/07/15 01:34:24;;;;;;;5.07;2.17;;;;;;;20.50;54.96;100232.94;4980248;28;20029;-89
2023/07/15 01:36:58;;;;;;;8.30;2.00;;;;;;;20.44;55.14;100231.38;4980766;28;20477;-90
2023/07/15 01:39:26;;;;;;;7.45;2.35;;;;;;;20.38;55.33;100234.50;4998023;28;20421;-90
2023/07/15 01:41:51;;;;;;;6.10;1.83;;;;;;;20.33;55.80;100233.44;4996545;28;20058;-90
2023/07/15 01:44:20;;;;;;;6.17;1.80;;;;;;;20.31;55.42;100245.88;4980034;28;20382;-89
2023/07/15 01:46:50;;;;;;;6.35;2.30;;;;;;;20.29;55.60;100235.16;4979937;28;20050;-89
2023/07/15 01:49:18;;;;;;;3.60;2.10;;;;;;;20.26;56.29;100251.47;4980795;28;20026;-90
2023/07/15 01:51:49;;;;;;;5.23;1.60;;;;;;;20.20;56.08;100244.38;4980012;28;20054;-89
2023/07/15 01:54:15;;;;;;;6.00;2.00;;;;;;;20.21;55.94;100246.00;4980673;28;20041;-90
2023/07/15 01:56:50;;;;;;;4.20;2.17;;;;;;;20.16;55.91;100258.72;4980072;28;20382;-89
2023/07/15 01:59:16;;;;;;;2.97;1.70;;;;;;;20.10;56.75;100250.81;4948428;28;20039;-90
2023/07/15 02:01:41;;;;;;;3.67;2.00;;;;;;;20.07;57.23;100254.16;4997718;28;20026;-89
2023/07/15 02:04:07;;;;;;;4.07;1.90;;;;;;;20.02;57.00;100262.47;4980293;28;20039;-89
2023/07/15 02:06:34;;;;;;;5.73;1.90;;;;;;;19.96;57.32;100256.19;5012491;28;20606;-90
2023/07/15 02:09:00;;;;;;;4.22;2.03;;;;;;;19.92;58.38;100255.16;5012215;28;20039;-90
2023/07/15 02:11:26;;;;;;;4.70;2.13;;;;;;;19.91;57.52;100251.56;4979876;28;20116;-90
2023/07/15 02:13:54;;;;;;;6.50;2.00;;;;;;;19.86;57.95;100243.38;5012241;28;20453;-89
2023/07/15 02:16:22;;;;;;;2.80;1.92;;;;;;;19.83;58.16;100254.16;4979234;28;20467;-89
2023/07/15 02:18:50;;;;;;;8.20;2.25;;;;;;;19.77;58.72;100259.69;4979569;28;20045;-89
2023/07/15 02:21:16;;;;;;;2.80;1.92;;;;;;;19.74;58.88;100262.22;4979811;28;20038;-90
2023/07/15 02:23:42;;;;;;;3.60;2.30;;;;;;;19.70;59.61;100264.72;4980211;28;20149;-90
2023/07/15 02:26:24;;;;;;;;;;;;;;;;;;;;;
2023/07/15 02:28:54;;;;;;;7.50;2.20;;;;;;;19.62;59.74;100268.09;4981894;28;20035;-89
2023/07/15 02:31:19;;;;;;;6.03;2.05;;;;;;;19.55;59.65;100260.19;4979831;28;20470;-89
2023/07/15 02:33:45;;;;;;;3.67;2.30;;;;;;;19.53;60.04;100256.91;4980033;28;20065;-89
2023/07/15 02:36:11;;;;;;;6.18;2.20;;;;;;;19.52;60.06;100258.00;4996589;28;20027;-89
2023/07/15 02:38:52;;;;;;;7.33;1.77;;;;;;;19.45;60.74;100260.28;4980058;28;20085;-89
2023/07/15 02:41:17;;;;;;;10.80;2.10;;;;;;;19.39;61.94;100258.69;4979471;28;20065;-90
2023/07/15 02:43:46;;;;;;;5.37;1.70;;;;;;;19.33;61.52;100257.09;4961668;28;20133;-89
2023/07/15 02:46:14;;;;;;;7.00;2.00;;;;;;;19.29;61.67;100259.59;4960133;28;20278;-90
2023/07/15 02:48:39;;;;;;;5.43;2.00;;;;;;;19.20;61.77;100262.13;4961125;28;20042;-90
2023/07/15 02:51:05;;;;;;;3.83;2.23;;;;;;;19.15;62.17;100256.69;4959617;28;20031;-90
2023/07/15 02:53:31;;;;;;;4.05;1.90;;;;;;;19.10;63.41;100256.72;4959789;28;20026;-89
2023/07/15 02:55:56;;;;;;;4.30;2.20;;;;;;;19.04;65.47;100255.13;4959956;28;20027;-89
2023/07/15 02:58:22;;;;;;;3.65;2.00;;;;;;;18.93;64.19;100255.19;4959134;28;20050;-89
2023/07/15 03:00:50;;;;;;;2.97;2.07;;;;;;;18.91;63.99;100256.56;4959344;28;20054;-89
2023/07/15 03:03:20;;;;;;;5.70;1.90;;;;;;;18.85;63.91;100254.94;4959588;28;20037;-90
2023/07/15 03:05:59;;;;;;;4.50;1.80;;;;;;;18.78;64.38;100258.03;4959450;28;20114;-90
2023/07/15 03:08:25;;;;;;;4.57;1.80;;;;;;;18.73;64.64;100253.41;4960116;28;20066;-90
2023/07/15 03:10:50;;;;;;;3.87;2.23;;;;;;;18.67;64.88;100251.75;4976792;28;20455;-90
2023/07/15 03:13:16;;;;;;;5.68;1.92;;;;;;;18.63;65.18;100249.88;4959941;28;20030;-89
2023/07/15 03:15:45;;;;;;;7.43;2.20;;;;;;;18.56;65.82;100252.94;4958871;28;20038;-89
2023/07/15 03:18:11;;;;;;;6.85;2.22;;;;;;;18.50;66.07;100252.16;4958915;28;20077;-89
2023/07/15 03:20:39;;;;;;;5.03;2.00;;;;;;;18.46;66.36;100255.75;4960030;28;20043;-89
2023/07/15 03:23:12;;;;;;;4.13;2.03;;;;;;;18.45;66.51;100268.63;4976952;28;20034;-90
2023/07/15 03:25:44;;;;;;;9.85;2.00;;;;;;;18.35;67.22;100261.28;4944044;28;20382;-90
2023/07/15 03:28:13;;;;;;;6.70;1.77;;;;;;;18.31;68.57;100262.94;4958989;28;20119;-90
2023/07/15 03:30:42;;;;;;;6.43;1.98;;;;;;;18.31;67.67;100257.44;4958753;28;20541;-90
2023/07/15 03:33:07;;;;;;;6.28;2.00;;;;;;;18.29;68.18;100256.94;4942704;28;20030;-90
2023/07/15 03:35:36;;;;;;;5.47;2.00;;;;;;;18.28;68.06;100254.44;4958946;28;20038;-89
2023/07/15 03:38:09;;;;;;;7.18;2.42;;;;;;;18.27;67.85;100256.38;4976057;28;20181;-90
2023/07/15 03:40:36;;;;;;;6.13;2.05;;;;;;;18.26;68.26;100260.22;4959333;28;20054;-90
2023/07/15 03:43:09;;;;;;;5.77;2.23;;;;;;;18.22;67.96;100254.47;4971390;28;20054;-90
2023/07/15 03:45:40;;;;;;;5.00;1.90;;;;;;;18.22;68.82;100253.66;4978953;28;20065;-90
2023/07/15 03:48:15;;;;;;;4.22;1.88;;;;;;;18.18;68.83;100255.31;4978651;28;20132;-90
2023/07/15 03:50:45;;;;;;;4.28;2.13;;;;;;;18.17;68.92;100257.25;4977895;28;20026;-90
2023/07/15 03:53:13;;;;;;;4.70;2.22;;;;;;;18.16;68.80;100252.00;4977840;28;20069;-89
2023/07/15 03:55:39;;;;;;;5.23;2.13;;;;;;;18.17;69.06;100257.25;4995286;28;20463;-89
2023/07/15 03:58:04;;;;;;;5.50;2.20;;;;;;;18.17;69.20;100250.91;4977860;28;20037;-89
2023/07/15 04:00:32;;;;;;;11.43;2.30;;;;;;;18.18;69.38;100258.06;4977823;28;20121;-89
2023/07/15 04:03:01;;;;;;;9.93;2.58;;;;;;;18.17;69.27;100249.00;4977830;28;20030;-89
2023/07/15 04:05:38;;;;;;;11.05;2.28;;;;;;;18.19;69.05;100254.22;4977747;28;20035;-89
2023/07/15 04:08:03;;;;;;;7.23;2.07;;;;;;;18.16;69.99;100246.53;4978057;28;20356;-89
2023/07/15 04:10:42;;;;;;;;;;;;;;;;;;;;;
2023/07/15 04:13:08;;;;;;;6.75;2.17;;;;;;;18.17;69.63;100246.28;4996293;28;20036;-90
2023/07/15 04:15:38;;;;;;;6.43;2.30;;;;;;;18.17;69.61;100249.00;4995012;28;20034;-89
2023/07/15 04:18:08;;;;;;;5.57;2.22;;;;;;;18.19;69.90;100246.78;4978451;28;20490;-89
2023/07/15 04:20:39;;;;;;;6.70;2.20;;;;;;;18.23;69.39;100255.28;4977584;28;20039;-90
2023/07/15 04:23:16;;;;;;;6.67;1.90;;;;;;;18.30;69.22;100257.75;4978505;28;20477;-90
2023/07/15 04:25:44;;;;;;;6.28;2.13;;;;;;;18.31;69.43;100254.72;4978046;28;20038;-90
2023/07/15 04:28:14;;;;;;;4.10;2.10;;;;;;;18.34;69.34;100254.13;4977774;28;20077;-89
2023/07/15 04:30:39;;;;;;;4.78;1.90;;;;;;;18.37;69.72;100264.56;4977911;28;20034;-89
2023/07/15 04:33:08;;;;;;;5.80;1.90;;;;;;;18.41;70.04;100259.34;4961871;28;20440;-89
2023/07/15 04:35:38;;;;;;;4.35;1.90;;;;;;;18.47;69.26;100268.34;4961124;28;20462;-89
2023/07/15 04:38:03;;;;;;;6.78;1.95;;;;;;;18.50;69.12;100267.78;4994907;28;20042;-89
2023/07/15 04:40:32;;;;;;;4.43;1.70;;;;;;;18.51;69.56;100269.44;4995001;28;20080;-89
2023/07/15 04:42:58;;;;;;;6.82;1.80;;;;;;;18.55;69.52;100265.84;4994537;28;20065;-89
2023/07/15 04:45:24;;;;;;;2.47;1.63;;;;;;;18.61;69.21;100271.31;5009466;28;20129;-89
2023/07/15 04:47:52;;;;;;;8.07;2.20;;;;;;;18.64;69.17;100273.50;4994718;28;20030;-89
2023/07/15 04:50:28;;;;;;;7.47;2.10;;;;;;;18.67;69.06;100279.22;4994469;28;20038;-89
2023/07/15 04:53:03;;;;;;;5.18;1.90;;;;;;;18.69;69.31;100281.69;4978080;28;20085;-89
2023/07/15 04:55:41;;;;;;;4.60;2.00;;;;;;;18.73;69.35;100277.28;4977297;28;20471;-89
2023/07/15 04:58:06;;;;;;;3.70;2.07;;;;;;;18.79;69.05;100275.31;4995826;28;20031;-89
2023/07/15 05:00:32;;;;;;;4.40;2.03;;;;;;;18.81;68.93;100279.44;4979308;28;20379;-90
2023/07/15 05:02:57;;;;;;;6.17;1.90;;;;;;;18.88;69.15;100279.13;4979305;28;20455;-90
2023/07/15 05:05:23;;;;;;;4.30;2.00;;;;;;;18.91;69.74;100273.91;4978498;28;20022;-89
2023/07/15 05:07:53;;;;;;;2.88;1.85;;;;;;;18.95;69.49;100276.09;4977496;28;20041;-90
2023/07/15 05:10:24;;;;;;;4.97;1.90;;;;;;;19.01;69.23;100283.19;4976951;28;20493;-90
2023/07/15 05:12:54;;;;;;;4.97;2.00;;;;;;;19.03;69.76;100278.22;4977847;28;20459;-89
2023/07/15 05:15:24;;;;;;;2.22;1.83;;;;;;;19.08;69.50;100287.25;4994433;28;20048;-89
2023/07/15 05:17:49;;;;;;;2.97;1.70;;;;;;;19.15;69.54;100291.59;5009250;28;20074;-89
2023/07/15 05:20:16;;;;;;;6.67;2.00;;;;;;;19.20;69.49;100275.06;4976624;28;20109;-86
2023/07/15 05:22:49;;;;;;;3.83;1.70;;;;;;;19.26;69.38;100273.91;4976356;28;20194;-84
2023/07/15 05:25:15;;;;;;;5.18;1.80;;;;;;;19.39;69.72;100277.94;4994586;28;20066;-83
2023/07/15 05:27:41;;;;;;;7.53;2.30;;;;;;;19.44;69.88;100264.97;4977025;28;20038;-83
2023/07/15 05:30:08;;;;;;;4.53;2.20;;;;;;;19.55;68.87;100273.13;4993950;28;20475;-84
2023/07/15 05:32:34;;;;;;;4.75;2.00;;;;;;;19.68;69.33;100288.13;4976654;28;20030;-84
2023/07/15 05:34:59;;;;;;;6.20;2.00;;;;;;;19.77;68.91;100284.47;4976296;28;20041;-84
2023/07/15 05:37:27;;;;;;;2.90;1.90;;;;;;;19.90;68.38;100284.91;4960621;28;20069;-83
2023/07/15 05:39:52;;;;;;;2.20;1.70;;;;;;;20.01;68.04;100280.94;4976364;28;20034;-83
2023/07/15 05:42:19;;;;;;;6.93;2.00;;;;;;;20.11;68.65;100280.00;4976758;28;20112;-83
2023/07/15 05:44:45;;;;;;;6.88;2.17;;;;;;;20.18;66.53;100283.19;4976955;28;20129;-83
2023/07/15 05:47:10;;;;;;;5.90;1.93;;;;;;;20.24;67.42;100282.06;4976931;28;20447;-83
2023/07/15 05:49:36;;;;;;;4.93;2.30;;;;;;;20.35;65.36;100288.25;4994013;28;20026;-83
2023/07/15 05:52:01;;;;;;;4.63;2.07;;;;;;;20.48;65.94;100300.50;4961995;28;20093;-83
2023/07/15 05:54:34;;;;;;;3.63;1.90;;;;;;;20.61;65.03;100290.66;4997816;28;20056;-83
2023/07/15 05:57:00;;;;;;;8.13;2.00;;;;;;;20.74;63.89;100298.22;4980544;28;20035;-83
2023/07/15 05:59:25;;;;;;;6.35;2.20;;;;;;;20.83;64.58;100306.66;4997475;28;20044;-83
2023/07/15 06:01:50;;;;;;;3.60;1.97;;;;;;;20.87;64.09;100298.63;4997845;28;20414;-83
2023/07/15 06:04:16;;;;;;;3.47;1.90;;;;;;;20.88;64.27;100290.03;4979710;28;20469;-83
2023/07/15 06:06:41;;;;;;;4.83;2.10;;;;;;;20.89;65.29;100288.94;4997688;28;20057;-84
2023/07/15 06:09:07;;;;;;;4.97;2.20;;;;;;;20.90;65.81;100298.00;4980383;28;20034;-83
2023/07/15 06:11:32;;;;;;;8.00;1.90;;;;;;;20.92;66.35;100301.28;4997417;28;20078;-83
2023/07/15 06:14:02;;;;;;;5.50;2.10;;;;;;;20.95;67.20;100314.47;4980519;28;20038;-84
2023/07/15 06:16:28;;;;;;;7.63;2.10;;;;;;;20.98;68.50;100308.38;4964247;28;20376;-84
2023/07/15 06:18:54;;;;;;;5.25;2.28;;;;;;;21.06;69.12;100309.63;4996816;28;20113;-84
2023/07/15 06:21:19;;;;;;;5.17;1.60;;;;;;;21.12;69.88;100300.16;4947895;28;20152;-84
2023/07/15 06:23:45;;;;;;;3.85;1.90;;;;;;;21.15;69.56;100303.13;4963348;28;20042;-84
2023/07/15 06:26:10;;;;;;;6.13;2.10;;;;;;;21.17;70.71;100300.06;4979596;28;20061;-84
2023/07/15 06:28:36;;;;;;;3.63;1.90;;;;;;;21.20;71.17;100305.81;4979485;28;20471;-84
2023/07/15 06:31:06;;;;;;;4.23;1.90;;;;;;;21.17;70.21;100300.91;4979245;28;20046;-84
2023/07/15 06:33:33;;;;;;;6.00;2.00;;;;;;;21.19;70.83;100301.41;4996805;28;20053;-84
2023/07/15 06:35:58;;;;;;;5.97;1.95;;;;;;;21.25;70.94;100313.19;4996715;28;20486;-84
2023/07/15 06:38:28;;;;;;;2.43;2.00;;;;;;;21.44;70.78;100324.19;4996963;28;20034;-84
2023/07/15 06:40:56;;;;;;;3.50;1.90;;;;;;;21.70;69.46;100310.81;4996444;28;20482;-84
2023/07/15 06:43:22;;;;;;;7.53;2.05;;;;;;;21.95;68.73;100316.97;4979113;28;20529;-83
2023/07/15 06:45:48;;;;;;;5.73;1.90;;;;;;;22.16;68.42;100316.59;4979000;28;20065;-84
2023/07/15 06:48:13;;;;;;;5.65;1.70;;;;;;;22.31;67.60;100301.66;4946837;28;20030;-84
2023/07/15 06:50:40;;;;;;;3.57;1.80;;;;;;;22.45;67.65;100310.78;4978709;28;20056;-83
2023/07/15 06:53:09;;;;;;;4.22;1.92;;;;;;;22.41;67.96;100305.06;4978947;28;20040;-83
2023/07/15 06:55:35;;;;;;;3.10;1.90;;;;;;;22.33;68.70;100293.91;4979398;28;20532;-83
2023/07/15 06:58:02;;;;;;;3.75;1.80;;;;;;;22.27;69.00;100292.34;4978715;28;20034;-84
2023/07/15 07:00:28;;;;;;;4.25;1.73;;;;;;;22.23;69.35;100292.13;4979538;28;20421;-84
2023/07/15 07:02:54;;;;;;;3.80;1.77;;;;;;;22.25;69.33;100301.75;4977224;28;20118;-84
2023/07/15 07:05:19;;;;;;;4.30;1.60;;;;;;;22.39;68.02;100310.06;4954367;28;20032;-84
2023/07/15 07:07:45;;;;;;;6.53;1.70;;;;;;;22.56;65.93;100301.16;4978701;28;20030;-84
2023/07/15 07:10:21;;;;;;;4.95;1.85;;;;;;;22.66;66.54;100294.59;4978579;28;20041;-84
2023/07/15 07:12:47;;;;;;;4.55;1.70;;;;;;;22.80;65.96;100300.09;4996782;28;20463;-85
2023/07/15 07:15:12;;;;;;;3.13;1.40;;;;;;;22.95;65.99;100296.94;4978155;28;20029;-84
2023/07/15 07:17:38;;;;;;;3.87;1.60;;;;;;;23.09;65.11;100302.47;4978092;28;20104;-84
2023/07/15 07:20:04;;;;;;;2.65;1.60;;;;;;;23.11;64.35;100299.41;4995768;28;20062;-84
2023/07/15 07:22:30;;;;;;;3.97;1.70;;;;;;;23.15;63.37;100308.72;4978175;28;20121;-84
2023/07/15 07:24:55;;;;;;;3.20;1.50;;;;;;;23.16;62.20;100313.09;4995855;28;20605;-84
2023/07/15 07:27:24;;;;;;;6.03;1.70;;;;;;;23.03;62.73;100312.00;4962507;28;20117;-84
2023/07/15 07:29:50;;;;;;;6.50;1.73;;;;;;;23.12;63.01;100307.41;4977841;28;20461;-84
2023/07/15 07:32:15;;;;;;;2.22;1.40;;;;;;;23.27;62.87;100310.94;4995722;28;20061;-84
2023/07/15 07:34:41;;;;;;;2.13;1.47;;;;;;;23.40;63.31;100310.03;4961814;28;20510;-84
2023/07/15 07:37:06;;;;;;;3.53;1.83;;;;;;;23.56;62.77;100324.31;4978919;28;20038;-84
2023/07/15 07:39:31;;;;;;;4.18;1.80;;;;;;;23.71;62.64;100325.03;4962261;28;20047;-84
2023/07/15 07:41:57;;;;;;;7.40;1.50;;;;;;;23.77;62.89;100324.59;4960326;28;20406;-84
2023/07/15 07:44:22;;;;;;;2.73;1.37;;;;;;;23.60;63.93;100314.22;4995446;28;20066;-84
2023/07/15 07:46:49;;;;;;;5.35;2.03;;;;;;;23.62;65.29;100314.75;4961953;28;20042;-84
2023/07/15 07:49:17;;;;;;;4.70;1.80;;;;;;;23.63;64.49;100310.81;4977379;28;20498;-84
2023/07/15 07:51:42;;;;;;;2.88;1.73;;;;;;;23.68;65.35;100311.84;4977490;28;20050;-85
2023/07/15 07:54:11;;;;;;;3.92;1.50;;;;;;;23.83;64.55;100311.44;4995091;28;20037;-86
2023/07/15 07:56:38;;;;;;;6.43;1.20;;;;;;;24.10;64.66;100313.22;4993987;28;20040;-85
2023/07/15 07:59:04;;;;;;;3.55;1.35;;;;;;;24.17;63.67;100304.44;4995438;28;20105;-86
2023/07/15 08:01:32;;;;;;;2.85;1.40;;;;;;;24.07;64.23;100288.13;4977949;28;20031;-86
2023/07/15 08:03:57;;;;;;;6.95;1.60;;;;;;;23.99;65.03;100301.59;4977519;28;20112;-86
2023/07/15 08:06:25;;;;;;;2.73;1.13;;;;;;;23.92;64.99;100314.28;4977562;28;20117;-85
2023/07/15 08:08:55;;;;;;;2.58;1.45;;;;;;;23.91;65.43;100324.53;4977499;28;20030;-85
2023/07/15 08:11:21;;;;;;;2.28;1.30;;;;;;;23.99;65.13;100326.53;4994364;28;20026;-86
2023/07/15 08:13:46;;;;;;;2.77;1.37;;;;;;;24.28;64.54;100324.38;4994623;28;20041;-86
2023/07/15 08:16:44;;;;;;;5.20;1.30;;;;;;;24.50;63.52;100312.38;4976829;28;20077;-86
2023/07/15 08:19:10;;;;;;;2.80;1.40;;;;;;;24.61;63.74;100322.06;4987850;28;20491;-85
2023/07/15 08:21:37;;;;;;;3.80;1.47;;;;;;;24.59;62.83;100317.97;4976332;28;20096;-86
2023/07/15 08:24:02;;;;;;;5.43;1.23;;;;;;;24.49;63.45;100317.09;4960820;28;20126;-85
2023/07/15 08:26:28;;;;;;;2.10;1.20;;;;;;;24.62;63.61;100320.91;4977529;28;20479;-86
2023/07/15 08:28:58;;;;;;;2.77;1.20;;;;;;;24.79;62.63;100328.44;4994691;28;20034;-86
2023/07/15 08:31:23;;;;;;;4.95;1.25;;;;;;;24.82;62.99;100329.75;4976472;28;20053;-85
2023/07/15 08:33:51;;;;;;;3.83;1.20;;;;;;;24.67;62.49;100320.75;4994284;28;20125;-85
2023/07/15 08:36:22;;;;;;;3.23;1.40;;;;;;;24.61;62.34;100324.84;4976906;28;20026;-86
2023/07/15 08:38:50;;;;;;;5.85;1.80;;;;;;;24.53;62.85;100328.34;4994616;28;20061;-86
2023/07/15 08:41:17;;;;;;;6.32;1.70;;;;;;;24.53;63.02;100339.44;4994414;28;20081;-86
2023/07/15 08:43:45;;;;;;;7.70;1.70;;;;;;;24.72;61.90;100339.19;4947536;28;20489;-86
2023/07/15 08:46:24;;;;;;;3.63;1.80;;;;;;;24.83;61.33;100348.03;4975392;28;20030;-86
2023/07/15 08:48:49;;;;;;;3.30;1.90;;;;;;;24.84;61.28;100350.47;4957829;28;20089;-86
2023/07/15 08:51:15;;;;;;;3.72;1.73;;;;;;;24.80;62.15;100351.44;4957166;28;20042;-86
2023/07/15 08:53:52;;;;;;;3.47;2.03;;;;;;;24.74;61.17;100358.28;4957470;28;20031;-85
2023/07/15 08:56:23;;;;;;;4.78;1.80;;;;;;;24.53;61.35;100356.88;4957606;28;20042;-85
2023/07/15 08:58:54;;;;;;;5.20;2.00;;;;;;;24.38;62.39;100368.44;4957175;28;20031;-86
2023/07/15 09:01:20;;;;;;;3.70;1.80;;;;;;;24.32;62.29;100380.81;4974765;28;20057;-86
2023/07/15 09:03:46;;;;;;;4.80;2.00;;;;;;;24.16;62.52;100389.53;4957548;28;20418;-86
2023/07/15 09:06:19;;;;;;;5.75;2.03;;;;;;;23.91;62.30;100381.91;4974435;28;20510;-85
2023/07/15 09:08:50;;;;;;;4.53;2.22;;;;;;;23.78;61.94;100372.50;4957958;28;20113;-87
2023/07/15 09:11:26;;;;;;;3.93;1.87;;;;;;;23.76;60.96;100372.00;4957001;28;20448;-87
2023/07/15 09:13:53;;;;;;;4.35;2.05;;;;;;;23.66;60.58;100384.16;4957869;28;20034;-87
2023/07/15 09:16:19;;;;;;;6.30;2.00;;;;;;;23.68;61.71;100373.59;4956902;28;20037;-86
2023/07/15 09:18:51;;;;;;;6.37;1.80;;;;;;;23.80;60.80;100379.38;4940976;28;20121;-91
2023/07/15 09:21:17;;;;;;;5.28;1.88;;;;;;;23.96;60.25;100379.81;4974663;28;20039;-87
2023/07/15 09:23:46;;;;;;;4.00;1.65;;;;;;;24.24;60.03;100379.63;4974680;28;20034;-86
2023/07/15 09:26:15;;;;;;;2.92;1.85;;;;;;;24.32;59.30;100378.84;4957671;28;20360;-86
2023/07/15 09:28:47;;;;;;;6.57;1.50;;;;;;;24.50;58.33;100388.03;4978061;28;20023;-86
2023/07/15 09:31:25;;;;;;;4.55;2.03;;;;;;;24.57;58.88;100376.50;4961310;28;20034;-86
2023/07/15 09:34:03;;;;;;;3.78;1.60;;;;;;;24.60;57.42;100384.19;4978149;28;20057;-86
2023/07/15 09:36:33;;;;;;;5.47;2.00;;;;;;;24.40;58.64;100393.06;4961094;28;20070;-86
2023/07/15 09:39:13;;;;;;;5.65;2.25;;;;;;;24.16;59.14;100392.28;4960952;28;20125;-88
2023/07/15 09:41:41;;;;;;;4.77;2.00;;;;;;;24.04;60.97;100388.50;4978550;28;20031;-86
2023/07/15 09:44:07;;;;;;;5.00;1.95;;;;;;;24.24;60.55;100398.22;4977323;28;20054;-86
2023/07/15 09:46:37;;;;;;;2.83;1.65;;;;;;;24.29;59.49;100396.13;4980057;28;20030;-87
2023/07/15 09:49:03;;;;;;;7.75;1.90;;;;;;;24.21;60.02;100399.66;4979936;28;20026;-87
2023/07/15 09:51:33;;;;;;;3.00;1.83;;;;;;;24.12;60.90;100412.66;5012665;28;20029;-87
2023/07/15 09:54:04;;;;;;;7.22;2.05;;;;;;;24.16;61.62;100428.31;4980119;28;20030;-86
2023/07/15 09:56:40;;;;;;;9.98;1.98;;;;;;;23.61;63.19;100415.56;4980307;28;20537;-87
2023/07/15 09:59:24;;;;;;;5.22;1.88;;;;;;;23.18;65.51;100421.53;4980153;28;20088;-87
2023/07/15 10:02:37;;;;;;;3.63;1.75;;;;;;;23.12;66.00;100423.59;4979481;28;20032;-87
2023/07/15 10:05:09;;;;;;;6.17;1.80;;;;;;;23.12;66.56;100422.78;4992133;28;20042;-87
2023/07/15 10:07:44;;;;;;;9.88;1.92;;;;;;;23.10;67.40;100416.72;4997022;28;20034;-87
2023/07/15 10:10:13;;;;;;;2.40;1.58;;;;;;;22.68;69.91;100407.66;4996067;28;20041;-89
2023/07/15 10:12:39;;;;;;;5.03;2.08;;;;;;;22.21;76.28;100422.31;4979624;28;20046;-89
2023/07/15 10:15:05;;;;;;;6.10;1.95;;;;;;;21.57;84.10;100410.13;4979407;28;20027;-89
2023/07/15 10:17:35;;;;;;;6.13;2.07;;;;;;;20.98;85.05;100408.47;4997256;28;20121;-89
2023/07/15 10:20:12;;;;;;;5.20;1.90;;;;;;;20.50;91.60;100383.66;5011872;28;20479;-89
2023/07/15 10:22:39;;;;;;;5.70;2.00;;;;;;;20.30;92.12;100395.75;4979977;28;20030;-89
2023/07/15 10:25:09;;;;;;;4.97;1.90;;;;;;;20.20;96.61;100376.59;4979676;28;20041;-89
2023/07/15 10:27:37;;;;;;;4.95;2.65;;;;;;;20.29;99.25;100388.59;4996935;28;20038;-89
2023/07/15 10:30:19;;;;;;;6.00;2.10;;;;;;;20.14;100.00;100392.34;4980003;28;20030;-88
2023/07/15 10:33:08;;;;;;;6.85;2.42;;;;;;;20.07;100.00;100398.16;4979470;28;20031;-88
2023/07/15 10:35:52;;;;;;;4.90;2.28;;;;;;;19.97;100.00;100388.09;4979701;28;20042;-87
2023/07/15 10:38:23;;;;;;;3.83;2.08;;;;;;;20.25;100.00;100385.59;4978620;28;20391;-87
2023/07/15 10:40:50;;;;;;;6.72;3.78;;;;;;;20.38;100.00;100380.50;4978924;28;20035;-87
2023/07/15 10:43:42;;;;;;;3.70;2.17;;;;;;;20.53;100.00;100391.34;4994679;28;20462;-87
2023/07/15 10:46:13;;;;;;;3.10;2.08;;;;;;;20.42;100.00;100389.84;4958218;28;20042;-87
2023/07/15 10:48:42;;;;;;;3.42;1.88;;;;;;;20.60;98.16;100394.56;4996691;28;20035;-88
2023/07/15 10:51:12;;;;;;;6.18;2.10;;;;;;;21.05;96.18;100394.28;4978927;28;20034;-87
2023/07/15 10:53:46;;;;;;;4.07;1.80;;;;;;;21.58;92.04;100390.50;4979995;28;20220;-87
2023/07/15 10:56:14;;;;;;;2.60;1.70;;;;;;;22.36;86.89;100403.84;4996321;28;20027;-88
2023/07/15 10:58:40;;;;;;;4.25;2.28;;;;;;;22.89;83.47;100414.38;4979033;28;20126;-88
2023/07/15 11:01:12;;;;;;;4.25;1.70;;;;;;;23.00;80.69;100398.41;4979057;28;20443;-86
2023/07/15 11:03:41;;;;;;;4.25;1.98;;;;;;;23.09;81.83;100398.44;4979593;28;20450;-86
2023/07/15 11:06:07;;;;;;;5.95;1.83;;;;;;;23.32;79.58;100401.31;4963378;28;20470;-86
2023/07/15 11:08:32;;;;;;;4.80;1.93;;;;;;;23.85;77.51;100392.25;4979320;28;20080;-87
2023/07/15 11:10:59;;;;;;;7.43;1.57;;;;;;;24.35;72.01;100402.34;4962312;28;20034;-86
2023/07/15 11:13:25;;;;;;;2.78;1.63;;;;;;;24.67;70.53;100387.31;4995753;28;20471;-86
2023/07/15 11:15:51;;;;;;;3.30;1.70;;;;;;;24.99;69.07;100393.56;4978188;28;20026;-86
2023/07/15 11:18:18;;;;;;;4.30;1.60;;;;;;;25.06;67.08;100395.88;4979040;28;20358;-86
2023/07/15 11:20:49;;;;;;;6.03;1.85;;;;;;;24.79;64.57;100405.31;4978134;28;20038;-87
2023/07/15 11:23:14;;;;;;;7.13;1.73;;;;;;;24.40;65.85;100366.16;4978199;28;20034;-87
2023/07/15 11:25:43;;;;;;;2.63;1.50;;;;;;;24.43;65.63;100387.69;4995613;28;20033;-86
2023/07/15 11:28:12;;;;;;;3.20;1.27;;;;;;;24.58;63.62;100386.47;4978242;28;20482;-87
2023/07/15 11:30:40;;;;;;;6.38;1.70;;;;;;;25.12;62.99;100388.22;4977926;28;20034;-86
2023/07/15 11:33:07;;;;;;;4.53;1.85;;;;;;;25.22;61.54;100382.34;4995775;28;20078;-87
2023/07/15 11:35:37;;;;;;;9.98;1.83;;;;;;;25.33;61.86;100380.09;5010347;28;20027;-87
2023/07/15 11:38:32;;;;;;;11.10;2.03;;;;;;;26.00;59.07;100377.91;4995790;28;20509;-87
2023/07/15 11:41:01;;;;;;;12.93;1.90;;;;;;;25.88;59.38;100382.16;4977990;28;20022;-87
2023/07/15 11:43:30;;;;;;;3.45;1.65;;;;;;;25.82;59.41;100364.03;4974238;28;20058;-87
2023/07/15 11:45:57;;;;;;;13.60;2.20;;;;;;;25.96;59.04;100355.50;4974469;28;20031;-87
2023/07/15 11:48:32;;;;;;;7.22;1.90;;;;;;;26.22;58.46;100360.16;4974243;28;20066;-87
2023/07/15 11:51:08;;;;;;;5.40;1.93;;;;;;;25.80;60.17;100354.41;4974551;28;20489;-87
2023/07/15 11:53:38;;;;;;;5.50;1.67;;;;;;;25.62;60.57;100359.97;4974214;28;20042;-87
2023/07/15 11:56:05;;;;;;;5.72;1.70;;;;;;;25.32;61.75;100356.25;4975773;28;20031;-86
2023/07/15 11:58:39;;;;;;;4.85;1.65;;;;;;;25.16;63.57;100348.38;4975877;28;20102;-87
2023/07/15 12:01:05;;;;;;;4.38;1.80;;;;;;;25.41;62.96;100351.53;4974690;28;20555;-87
2023/07/15 12:03:31;;;;;;;5.00;1.73;;;;;;;25.90;61.34;100346.50;4975775;28;20026;-87
2023/07/15 12:05:57;;;;;;;2.45;1.50;;;;;;;25.81;60.67;100348.50;4974030;28;20027;-87
2023/07/15 12:08:22;;;;;;;3.35;2.15;;;;;;;25.65;60.41;100348.22;4975202;28;20085;-87
2023/07/15 12:10:58;;;;;;;5.73;1.63;;;;;;;25.42;61.77;100338.44;4975397;28;20042;-87
2023/07/15 12:13:27;;;;;;;5.57;1.50;;;;;;;25.66;61.56;100324.84;4975307;28;20031;-87
2023/07/15 12:15:55;;;;;;;4.68;2.20;;;;;;;26.46;59.62;100323.41;4975588;28;20022;-87
2023/07/15 12:18:21;;;;;;;3.50;1.50;;;;;;;27.26;55.79;100324.50;4973744;28;20122;-87
2023/07/15 12:20:46;;;;;;;3.05;1.80;;;;;;;27.81;54.24;100325.28;4974026;28;20062;-87
2023/07/15 12:23:14;;;;;;;8.43;1.80;;;;;;;27.39;54.69;100331.00;4974217;28;20054;-87